This is the latest recevied weather packets stored in our database for station/object SV7GBF-2. If no packets are shown the sender has not sent any weather packets the latest 10 day(s).
| Time | Temp. | Humidity | Pressure | Rain* | Wind** | Luminosity | Snow |
|---|---|---|---|---|---|---|---|
| 1787933645 | 29.44° C | 34% | 1017 hPa | - | - | - | - |
| 1787933044 | 29.44° C | 34% | 1017 hPa | - | - | - | - |
| 1787932443 | 29.44° C | 32% | 1017 hPa | - | - | - | - |
| 1787931843 | 29.44° C | 33% | 1017 hPa | - | - | - | - |
| 1787931243 | 30° C | 32% | 1016 hPa | - | - | - | - |
| 1787930644 | 30° C | 31% | 1016 hPa | - | - | - | - |
| 1787930043 | 30.56° C | 30% | 1016 hPa | - | - | - | - |
| 1787929443 | 31.11° C | 28% | 1016 hPa | - | - | - | - |
| 1787928844 | 31.67° C | 27% | 1016 hPa | - | - | - | - |
| 1787928244 | 31.67° C | 28% | 1016 hPa | - | - | - | - |
| 1787927644 | 32.22° C | 23% | 1016 hPa | - | - | - | - |
| 1787926444 | 32.22° C | 23% | 1016 hPa | - | - | - | - |
| 1787925843 | 32.22° C | 25% | 1016 hPa | - | - | - | - |
| 1787925244 | 31.67° C | 26% | 1016 hPa | - | - | - | - |
| 1787924645 | 31.67° C | 27% | 1016 hPa | - | - | - | - |
| 1787924044 | 31.67° C | 26% | 1016 hPa | - | - | - | - |
| 1787923443 | 31.11° C | 28% | 1016 hPa | - | - | - | - |
| 1787922845 | 31.67° C | 26% | 1016 hPa | - | - | - | - |
| 1787922244 | 31.67° C | 25% | 1016 hPa | - | - | - | - |
| 1787921045 | 32.22° C | 22% | 1016 hPa | - | - | - | - |
| 1787920443 | 31.67° C | 24% | 1016 hPa | - | - | - | - |
| 1787919843 | 31.67° C | 24% | 1016 hPa | - | - | - | - |
| 1787919243 | 31.11° C | 25% | 1016 hPa | - | - | - | - |
| 1787916243 | 31.11° C | 28% | 1017 hPa | - | - | - | - |
| 1787915644 | 30.56° C | 29% | 1017 hPa | - | - | - | - |
* Rain since midnight (hover to see other rain measurements)
** Current wind speed in m/s (hover to see current wind gust speed)